sensor_id;sensor_type;location;lat;lon;timestamp;temperature;humidity
38910;DHT22;24676;51.360;12.354;2023-11-22T00:01:21;1.70;99.90
38910;DHT22;24676;51.360;12.354;2023-11-22T00:04:06;1.70;99.90
38910;DHT22;24676;51.360;12.354;2023-11-22T00:06:50;1.70;99.90
38910;DHT22;24676;51.360;12.354;2023-11-22T00:09:34;1.70;99.90
38910;DHT22;24676;51.360;12.354;2023-11-22T00:12:18;1.60;99.90
38910;DHT22;24676;51.360;12.354;2023-11-22T00:15:03;1.70;99.90
38910;DHT22;24676;51.360;12.354;2023-11-22T00:17:49;1.70;99.90
38910;DHT22;24676;51.360;12.354;2023-11-22T00:20:33;1.70;99.90
38910;DHT22;24676;51.360;12.354;2023-11-22T00:23:17;1.70;99.90
38910;DHT22;24676;51.360;12.354;2023-11-22T00:26:02;1.70;99.90
38910;DHT22;24676;51.360;12.354;2023-11-22T00:28:46;1.60;99.90
38910;DHT22;24676;51.360;12.354;2023-11-22T00:31:30;1.70;99.90
38910;DHT22;24676;51.360;12.354;2023-11-22T00:34:14;1.70;99.90
38910;DHT22;24676;51.360;12.354;2023-11-22T00:36:58;1.70;99.90
38910;DHT22;24676;51.360;12.354;2023-11-22T00:39:42;1.70;99.90
38910;DHT22;24676;51.360;12.354;2023-11-22T00:42:27;1.60;99.90
38910;DHT22;24676;51.360;12.354;2023-11-22T00:45:11;1.70;99.90
38910;DHT22;24676;51.360;12.354;2023-11-22T00:47:55;1.60;99.90
38910;DHT22;24676;51.360;12.354;2023-11-22T00:50:39;1.60;99.90
38910;DHT22;24676;51.360;12.354;2023-11-22T00:53:23;1.60;99.90
38910;DHT22;24676;51.360;12.354;2023-11-22T00:56:08;1.60;99.90
38910;DHT22;24676;51.360;12.354;2023-11-22T00:58:52;1.60;99.90
38910;DHT22;24676;51.360;12.354;2023-11-22T01:01:37;1.70;99.90
38910;DHT22;24676;51.360;12.354;2023-11-22T01:04:21;1.60;99.90
38910;DHT22;24676;51.360;12.354;2023-11-22T01:07:06;1.60;99.90
38910;DHT22;24676;51.360;12.354;2023-11-22T01:09:50;1.60;99.90
38910;DHT22;24676;51.360;12.354;2023-11-22T01:12:34;1.60;99.90
38910;DHT22;24676;51.360;12.354;2023-11-22T01:15:18;1.60;99.90
38910;DHT22;24676;51.360;12.354;2023-11-22T01:18:03;1.60;99.90
38910;DHT22;24676;51.360;12.354;2023-11-22T01:20:47;1.60;99.90
38910;DHT22;24676;51.360;12.354;2023-11-22T01:23:31;1.60;99.90
38910;DHT22;24676;51.360;12.354;2023-11-22T01:26:15;1.60;99.90
38910;DHT22;24676;51.360;12.354;2023-11-22T01:29:01;1.50;99.90
38910;DHT22;24676;51.360;12.354;2023-11-22T01:31:46;1.50;99.90
38910;DHT22;24676;51.360;12.354;2023-11-22T01:34:31;1.50;99.90
38910;DHT22;24676;51.360;12.354;2023-11-22T01:37:15;1.50;99.90
38910;DHT22;24676;51.360;12.354;2023-11-22T01:40:00;1.60;99.90
38910;DHT22;24676;51.360;12.354;2023-11-22T01:42:46;1.60;99.90
38910;DHT22;24676;51.360;12.354;2023-11-22T01:45:31;1.50;99.90
38910;DHT22;24676;51.360;12.354;2023-11-22T01:48:15;1.50;99.90
38910;DHT22;24676;51.360;12.354;2023-11-22T01:50:59;1.40;99.90
38910;DHT22;24676;51.360;12.354;2023-11-22T01:53:43;1.20;99.90
38910;DHT22;24676;51.360;12.354;2023-11-22T01:56:27;1.00;99.90
38910;DHT22;24676;51.360;12.354;2023-11-22T01:59:12;1.00;99.90
38910;DHT22;24676;51.360;12.354;2023-11-22T02:01:56;0.80;99.90
38910;DHT22;24676;51.360;12.354;2023-11-22T02:04:41;0.70;99.90
38910;DHT22;24676;51.360;12.354;2023-11-22T02:07:28;0.60;99.90
38910;DHT22;24676;51.360;12.354;2023-11-22T02:10:12;0.50;99.90
38910;DHT22;24676;51.360;12.354;2023-11-22T02:12:56;0.40;99.90
38910;DHT22;24676;51.360;12.354;2023-11-22T02:15:41;0.30;99.90
38910;DHT22;24676;51.360;12.354;2023-11-22T02:18:25;0.20;99.90
38910;DHT22;24676;51.360;12.354;2023-11-22T02:21:09;0.20;99.90
38910;DHT22;24676;51.360;12.354;2023-11-22T02:23:55;0.10;99.90
38910;DHT22;24676;51.360;12.354;2023-11-22T02:26:43;0.10;99.90
38910;DHT22;24676;51.360;12.354;2023-11-22T02:29:27;0.00;99.90
38910;DHT22;24676;51.360;12.354;2023-11-22T02:32:11;0.00;99.90
38910;DHT22;24676;51.360;12.354;2023-11-22T02:34:58;-0.10;99.90
38910;DHT22;24676;51.360;12.354;2023-11-22T02:37:42;-0.10;99.90
38910;DHT22;24676;51.360;12.354;2023-11-22T02:40:29;-0.20;99.90
38910;DHT22;24676;51.360;12.354;2023-11-22T02:43:13;-0.20;99.90
38910;DHT22;24676;51.360;12.354;2023-11-22T02:45:57;-0.30;99.90
38910;DHT22;24676;51.360;12.354;2023-11-22T02:48:42;-0.30;99.90
38910;DHT22;24676;51.360;12.354;2023-11-22T02:51:26;-0.30;99.90
38910;DHT22;24676;51.360;12.354;2023-11-22T02:54:10;-0.40;99.90
38910;DHT22;24676;51.360;12.354;2023-11-22T02:56:54;-0.40;99.90
38910;DHT22;24676;51.360;12.354;2023-11-22T02:59:42;-0.50;99.90
38910;DHT22;24676;51.360;12.354;2023-11-22T03:02:27;-0.50;99.90
38910;DHT22;24676;51.360;12.354;2023-11-22T03:05:11;-0.60;99.90
38910;DHT22;24676;51.360;12.354;2023-11-22T03:07:56;-0.60;99.90
38910;DHT22;24676;51.360;12.354;2023-11-22T03:10:40;-0.70;99.90
38910;DHT22;24676;51.360;12.354;2023-11-22T03:13:25;-0.70;99.90
38910;DHT22;24676;51.360;12.354;2023-11-22T03:16:10;-0.70;99.90
38910;DHT22;24676;51.360;12.354;2023-11-22T03:18:54;-0.70;99.90
38910;DHT22;24676;51.360;12.354;2023-11-22T03:21:39;-0.70;99.90
38910;DHT22;24676;51.360;12.354;2023-11-22T03:24:25;-0.80;99.90
38910;DHT22;24676;51.360;12.354;2023-11-22T03:27:09;-0.80;99.90
38910;DHT22;24676;51.360;12.354;2023-11-22T03:29:54;-0.80;99.90
38910;DHT22;24676;51.360;12.354;2023-11-22T03:32:38;-0.90;99.90
38910;DHT22;24676;51.360;12.354;2023-11-22T03:35:23;-0.90;99.90
38910;DHT22;24676;51.360;12.354;2023-11-22T03:38:07;-0.90;99.90
38910;DHT22;24676;51.360;12.354;2023-11-22T03:40:52;-0.90;99.90
38910;DHT22;24676;51.360;12.354;2023-11-22T03:43:37;-0.90;99.90
38910;DHT22;24676;51.360;12.354;2023-11-22T03:46:21;-0.90;99.90
38910;DHT22;24676;51.360;12.354;2023-11-22T03:49:06;-0.90;99.90
38910;DHT22;24676;51.360;12.354;2023-11-22T03:51:53;-1.00;99.90
38910;DHT22;24676;51.360;12.354;2023-11-22T03:54:37;-1.00;99.90
38910;DHT22;24676;51.360;12.354;2023-11-22T03:57:21;-1.00;99.90
38910;DHT22;24676;51.360;12.354;2023-11-22T04:00:05;-1.00;99.90
38910;DHT22;24676;51.360;12.354;2023-11-22T04:02:50;-1.00;99.90
38910;DHT22;24676;51.360;12.354;2023-11-22T04:05:34;-1.00;99.90
38910;DHT22;24676;51.360;12.354;2023-11-22T04:08:19;-1.10;99.90
38910;DHT22;24676;51.360;12.354;2023-11-22T04:11:03;-1.10;99.90
38910;DHT22;24676;51.360;12.354;2023-11-22T04:13:48;-1.10;99.90
38910;DHT22;24676;51.360;12.354;2023-11-22T04:16:32;-1.20;99.90
38910;DHT22;24676;51.360;12.354;2023-11-22T04:19:16;-1.20;99.90
38910;DHT22;24676;51.360;12.354;2023-11-22T04:22:00;-1.20;99.90
38910;DHT22;24676;51.360;12.354;2023-11-22T04:24:45;-1.20;99.90
38910;DHT22;24676;51.360;12.354;2023-11-22T04:27:29;-1.20;99.90
38910;DHT22;24676;51.360;12.354;2023-11-22T04:30:13;-1.20;99.90
38910;DHT22;24676;51.360;12.354;2023-11-22T04:32:58;-1.20;99.90
38910;DHT22;24676;51.360;12.354;2023-11-22T04:35:44;-1.30;99.90
38910;DHT22;24676;51.360;12.354;2023-11-22T04:38:28;-1.30;99.90
38910;DHT22;24676;51.360;12.354;2023-11-22T04:41:12;-1.30;99.90
38910;DHT22;24676;51.360;12.354;2023-11-22T04:43:58;-1.30;99.90
38910;DHT22;24676;51.360;12.354;2023-11-22T04:46:42;-1.30;99.90
38910;DHT22;24676;51.360;12.354;2023-11-22T04:49:27;-1.30;99.90
38910;DHT22;24676;51.360;12.354;2023-11-22T04:52:11;-1.40;99.90
38910;DHT22;24676;51.360;12.354;2023-11-22T04:54:55;-1.40;99.90
38910;DHT22;24676;51.360;12.354;2023-11-22T04:57:40;-1.40;99.90
38910;DHT22;24676;51.360;12.354;2023-11-22T05:00:24;-1.40;99.90
38910;DHT22;24676;51.360;12.354;2023-11-22T05:03:08;-1.40;99.90
38910;DHT22;24676;51.360;12.354;2023-11-22T05:05:52;-1.50;99.90
38910;DHT22;24676;51.360;12.354;2023-11-22T05:08:36;-1.50;99.90
38910;DHT22;24676;51.360;12.354;2023-11-22T05:11:21;-1.50;99.90
38910;DHT22;24676;51.360;12.354;2023-11-22T05:14:05;-1.50;99.90
38910;DHT22;24676;51.360;12.354;2023-11-22T05:16:50;-1.60;99.90
38910;DHT22;24676;51.360;12.354;2023-11-22T05:19:34;-1.60;99.90
38910;DHT22;24676;51.360;12.354;2023-11-22T05:22:18;-1.50;99.90
38910;DHT22;24676;51.360;12.354;2023-11-22T05:25:03;-1.50;99.90
38910;DHT22;24676;51.360;12.354;2023-11-22T05:27:47;-1.50;99.90
38910;DHT22;24676;51.360;12.354;2023-11-22T05:30:31;-1.60;99.90
38910;DHT22;24676;51.360;12.354;2023-11-22T05:33:15;-1.60;99.90
38910;DHT22;24676;51.360;12.354;2023-11-22T05:35:59;-1.60;99.90
38910;DHT22;24676;51.360;12.354;2023-11-22T05:38:44;-1.60;99.90
38910;DHT22;24676;51.360;12.354;2023-11-22T05:41:28;-1.60;99.90
38910;DHT22;24676;51.360;12.354;2023-11-22T05:44:12;-1.60;99.90
38910;DHT22;24676;51.360;12.354;2023-11-22T05:46:56;-1.60;99.90
38910;DHT22;24676;51.360;12.354;2023-11-22T05:49:40;-1.60;99.90
38910;DHT22;24676;51.360;12.354;2023-11-22T05:52:25;-1.60;99.90
38910;DHT22;24676;51.360;12.354;2023-11-22T05:55:09;-1.60;99.90
38910;DHT22;24676;51.360;12.354;2023-11-22T05:57:53;-1.60;99.90
38910;DHT22;24676;51.360;12.354;2023-11-22T06:00:37;-1.60;99.90
38910;DHT22;24676;51.360;12.354;2023-11-22T06:03:22;-1.60;99.90
38910;DHT22;24676;51.360;12.354;2023-11-22T06:06:06;-1.60;99.90
38910;DHT22;24676;51.360;12.354;2023-11-22T06:08:50;-1.50;99.90
38910;DHT22;24676;51.360;12.354;2023-11-22T06:11:34;-1.50;99.90
38910;DHT22;24676;51.360;12.354;2023-11-22T06:14:19;-1.50;99.90
38910;DHT22;24676;51.360;12.354;2023-11-22T06:17:04;-1.40;99.90
38910;DHT22;24676;51.360;12.354;2023-11-22T06:19:48;-1.30;99.90
38910;DHT22;24676;51.360;12.354;2023-11-22T06:22:32;-1.30;99.90
38910;DHT22;24676;51.360;12.354;2023-11-22T06:25:17;-1.20;99.90
38910;DHT22;24676;51.360;12.354;2023-11-22T06:28:01;-1.10;99.90
38910;DHT22;24676;51.360;12.354;2023-11-22T06:30:45;-1.10;99.90
38910;DHT22;24676;51.360;12.354;2023-11-22T06:33:29;-1.00;99.90
38910;DHT22;24676;51.360;12.354;2023-11-22T06:36:13;-1.00;99.90
38910;DHT22;24676;51.360;12.354;2023-11-22T06:38:58;-0.90;99.90
38910;DHT22;24676;51.360;12.354;2023-11-22T06:41:42;-0.90;99.90
38910;DHT22;24676;51.360;12.354;2023-11-22T06:44:26;-0.90;99.90
38910;DHT22;24676;51.360;12.354;2023-11-22T06:47:11;-0.90;99.90
38910;DHT22;24676;51.360;12.354;2023-11-22T06:49:55;-0.90;99.90
38910;DHT22;24676;51.360;12.354;2023-11-22T06:52:40;-0.80;99.90
38910;DHT22;24676;51.360;12.354;2023-11-22T06:55:24;-0.80;99.90
38910;DHT22;24676;51.360;12.354;2023-11-22T06:58:10;-0.80;99.90
38910;DHT22;24676;51.360;12.354;2023-11-22T07:00:55;-0.80;99.90
38910;DHT22;24676;51.360;12.354;2023-11-22T07:03:39;-0.80;99.90
38910;DHT22;24676;51.360;12.354;2023-11-22T07:06:24;-0.80;99.90
38910;DHT22;24676;51.360;12.354;2023-11-22T07:09:08;-0.80;99.90
38910;DHT22;24676;51.360;12.354;2023-11-22T07:11:56;-0.90;99.90
38910;DHT22;24676;51.360;12.354;2023-11-22T07:14:41;-0.90;99.90
38910;DHT22;24676;51.360;12.354;2023-11-22T07:17:27;-0.90;99.90
38910;DHT22;24676;51.360;12.354;2023-11-22T07:20:12;-0.90;99.90
38910;DHT22;24676;51.360;12.354;2023-11-22T07:23:00;-0.90;99.90
38910;DHT22;24676;51.360;12.354;2023-11-22T07:25:44;-0.90;99.90
38910;DHT22;24676;51.360;12.354;2023-11-22T07:28:28;-0.90;99.90
38910;DHT22;24676;51.360;12.354;2023-11-22T07:31:12;-0.80;99.90
38910;DHT22;24676;51.360;12.354;2023-11-22T07:33:57;-0.80;99.90
38910;DHT22;24676;51.360;12.354;2023-11-22T07:36:41;-0.70;99.90
38910;DHT22;24676;51.360;12.354;2023-11-22T07:39:25;-0.60;99.90
38910;DHT22;24676;51.360;12.354;2023-11-22T07:42:11;-0.60;99.90
38910;DHT22;24676;51.360;12.354;2023-11-22T07:44:55;-0.50;99.90
38910;DHT22;24676;51.360;12.354;2023-11-22T07:47:41;-0.40;99.90
38910;DHT22;24676;51.360;12.354;2023-11-22T07:50:25;-0.30;99.90
38910;DHT22;24676;51.360;12.354;2023-11-22T07:53:10;-0.30;99.90
38910;DHT22;24676;51.360;12.354;2023-11-22T07:55:55;-0.20;99.90
38910;DHT22;24676;51.360;12.354;2023-11-22T07:58:40;-0.10;99.90
38910;DHT22;24676;51.360;12.354;2023-11-22T08:01:24;0.10;99.90
38910;DHT22;24676;51.360;12.354;2023-11-22T08:04:09;0.20;99.90
38910;DHT22;24676;51.360;12.354;2023-11-22T08:06:53;0.30;99.90
38910;DHT22;24676;51.360;12.354;2023-11-22T08:09:40;0.30;99.90
38910;DHT22;24676;51.360;12.354;2023-11-22T08:12:25;0.30;99.90
38910;DHT22;24676;51.360;12.354;2023-11-22T08:15:10;0.20;99.90
38910;DHT22;24676;51.360;12.354;2023-11-22T08:17:57;0.20;99.90
38910;DHT22;24676;51.360;12.354;2023-11-22T08:20:41;0.20;99.90
38910;DHT22;24676;51.360;12.354;2023-11-22T08:23:25;0.20;99.90
38910;DHT22;24676;51.360;12.354;2023-11-22T08:26:10;0.20;99.90
38910;DHT22;24676;51.360;12.354;2023-11-22T08:28:55;0.20;99.90
38910;DHT22;24676;51.360;12.354;2023-11-22T08:31:40;0.20;99.90
38910;DHT22;24676;51.360;12.354;2023-11-22T08:34:24;0.10;99.90
38910;DHT22;24676;51.360;12.354;2023-11-22T08:37:08;0.10;99.90
38910;DHT22;24676;51.360;12.354;2023-11-22T08:39:53;0.20;99.90
38910;DHT22;24676;51.360;12.354;2023-11-22T08:42:37;0.20;99.90
38910;DHT22;24676;51.360;12.354;2023-11-22T08:45:22;0.20;99.90
38910;DHT22;24676;51.360;12.354;2023-11-22T08:48:06;0.10;99.90
38910;DHT22;24676;51.360;12.354;2023-11-22T08:50:50;0.10;99.90
38910;DHT22;24676;51.360;12.354;2023-11-22T08:53:37;0.00;99.90
38910;DHT22;24676;51.360;12.354;2023-11-22T08:56:21;0.00;99.90
38910;DHT22;24676;51.360;12.354;2023-11-22T08:59:05;0.00;99.90
38910;DHT22;24676;51.360;12.354;2023-11-22T09:01:50;0.20;99.90
38910;DHT22;24676;51.360;12.354;2023-11-22T09:04:34;0.20;99.90
38910;DHT22;24676;51.360;12.354;2023-11-22T09:07:19;0.20;99.90
38910;DHT22;24676;51.360;12.354;2023-11-22T09:10:06;0.30;99.90
38910;DHT22;24676;51.360;12.354;2023-11-22T09:12:53;0.50;99.90
38910;DHT22;24676;51.360;12.354;2023-11-22T09:15:37;0.70;99.90
38910;DHT22;24676;51.360;12.354;2023-11-22T09:18:22;0.90;99.90
38910;DHT22;24676;51.360;12.354;2023-11-22T09:21:06;1.10;99.90
38910;DHT22;24676;51.360;12.354;2023-11-22T09:23:52;1.10;99.90
38910;DHT22;24676;51.360;12.354;2023-11-22T09:26:36;1.00;99.90
38910;DHT22;24676;51.360;12.354;2023-11-22T09:29:20;1.00;99.90
38910;DHT22;24676;51.360;12.354;2023-11-22T09:32:05;1.10;99.90
38910;DHT22;24676;51.360;12.354;2023-11-22T09:34:49;1.20;99.90
38910;DHT22;24676;51.360;12.354;2023-11-22T09:37:33;1.10;99.90
38910;DHT22;24676;51.360;12.354;2023-11-22T09:40:19;1.20;99.90
38910;DHT22;24676;51.360;12.354;2023-11-22T09:43:06;1.40;99.90
38910;DHT22;24676;51.360;12.354;2023-11-22T09:45:51;1.40;99.90
38910;DHT22;24676;51.360;12.354;2023-11-22T09:48:39;1.50;99.90
38910;DHT22;24676;51.360;12.354;2023-11-22T09:51:23;1.80;99.90
38910;DHT22;24676;51.360;12.354;2023-11-22T09:54:08;1.60;99.90
38910;DHT22;24676;51.360;12.354;2023-11-22T09:56:57;1.80;99.90
38910;DHT22;24676;51.360;12.354;2023-11-22T09:59:44;2.00;99.90
38910;DHT22;24676;51.360;12.354;2023-11-22T10:02:28;2.30;99.90
38910;DHT22;24676;51.360;12.354;2023-11-22T10:05:14;2.60;99.90
38910;DHT22;24676;51.360;12.354;2023-11-22T10:07:58;2.70;99.90
38910;DHT22;24676;51.360;12.354;2023-11-22T10:10:44;2.60;99.90
38910;DHT22;24676;51.360;12.354;2023-11-22T10:13:31;2.80;99.90
38910;DHT22;24676;51.360;12.354;2023-11-22T10:16:16;3.20;99.90
38910;DHT22;24676;51.360;12.354;2023-11-22T10:19:01;3.30;99.90
38910;DHT22;24676;51.360;12.354;2023-11-22T10:21:45;3.50;99.90
38910;DHT22;24676;51.360;12.354;2023-11-22T10:24:32;3.90;99.90
38910;DHT22;24676;51.360;12.354;2023-11-22T10:27:19;4.40;99.90
38910;DHT22;24676;51.360;12.354;2023-11-22T10:30:04;4.90;99.10
38910;DHT22;24676;51.360;12.354;2023-11-22T10:32:48;5.20;93.90
38910;DHT22;24676;51.360;12.354;2023-11-22T10:35:33;5.20;93.10
38910;DHT22;24676;51.360;12.354;2023-11-22T10:38:17;5.50;93.30
38910;DHT22;24676;51.360;12.354;2023-11-22T10:41:05;5.60;93.30
38910;DHT22;24676;51.360;12.354;2023-11-22T10:43:52;5.80;91.50
38910;DHT22;24676;51.360;12.354;2023-11-22T10:46:40;5.70;87.60
38910;DHT22;24676;51.360;12.354;2023-11-22T10:49:24;5.50;86.20
38910;DHT22;24676;51.360;12.354;2023-11-22T10:52:08;4.90;86.70
38910;DHT22;24676;51.360;12.354;2023-11-22T10:54:56;4.50;92.60
38910;DHT22;24676;51.360;12.354;2023-11-22T10:57:46;4.40;94.70
38910;DHT22;24676;51.360;12.354;2023-11-22T11:00:33;4.30;98.20
38910;DHT22;24676;51.360;12.354;2023-11-22T11:03:18;4.40;96.50
38910;DHT22;24676;51.360;12.354;2023-11-22T11:06:03;4.20;96.20
38910;DHT22;24676;51.360;12.354;2023-11-22T11:08:48;4.30;98.10
38910;DHT22;24676;51.360;12.354;2023-11-22T11:11:33;4.20;99.90
38910;DHT22;24676;51.360;12.354;2023-11-22T11:14:18;4.00;99.90
38910;DHT22;24676;51.360;12.354;2023-11-22T11:17:02;4.20;99.90
38910;DHT22;24676;51.360;12.354;2023-11-22T11:19:47;4.30;98.20
38910;DHT22;24676;51.360;12.354;2023-11-22T11:22:34;4.30;97.00
38910;DHT22;24676;51.360;12.354;2023-11-22T11:25:19;4.30;99.50
38910;DHT22;24676;51.360;12.354;2023-11-22T11:28:03;4.40;97.50
38910;DHT22;24676;51.360;12.354;2023-11-22T11:30:47;4.40;98.30
38910;DHT22;24676;51.360;12.354;2023-11-22T11:33:33;4.60;99.40
38910;DHT22;24676;51.360;12.354;2023-11-22T11:39:12;4.80;96.70
38910;DHT22;24676;51.360;12.354;2023-11-22T11:42:08;4.70;95.50
38910;DHT22;24676;51.360;12.354;2023-11-22T11:47:43;4.30;96.70
38910;DHT22;24676;51.360;12.354;2023-11-22T11:50:28;4.00;99.80
38910;DHT22;24676;51.360;12.354;2023-11-22T11:53:12;3.90;99.90
38910;DHT22;24676;51.360;12.354;2023-11-22T11:55:57;3.50;98.50
38910;DHT22;24676;51.360;12.354;2023-11-22T11:58:45;3.20;99.90
38910;DHT22;24676;51.360;12.354;2023-11-22T12:01:30;3.10;99.90
38910;DHT22;24676;51.360;12.354;2023-11-22T12:04:16;3.10;99.90
38910;DHT22;24676;51.360;12.354;2023-11-22T12:07:00;3.00;99.90
38910;DHT22;24676;51.360;12.354;2023-11-22T12:09:44;2.90;99.90
38910;DHT22;24676;51.360;12.354;2023-11-22T12:12:30;2.70;99.90
38910;DHT22;24676;51.360;12.354;2023-11-22T12:15:15;2.60;99.90
38910;DHT22;24676;51.360;12.354;2023-11-22T12:18:00;2.50;99.90
38910;DHT22;24676;51.360;12.354;2023-11-22T12:20:55;2.60;99.90
38910;DHT22;24676;51.360;12.354;2023-11-22T12:23:40;2.70;99.90
38910;DHT22;24676;51.360;12.354;2023-11-22T12:26:24;2.70;99.90
38910;DHT22;24676;51.360;12.354;2023-11-22T12:29:08;2.70;99.90
38910;DHT22;24676;51.360;12.354;2023-11-22T12:31:55;2.70;99.90
38910;DHT22;24676;51.360;12.354;2023-11-22T12:34:40;2.70;99.90
38910;DHT22;24676;51.360;12.354;2023-11-22T12:37:26;2.80;99.90
38910;DHT22;24676;51.360;12.354;2023-11-22T12:40:10;2.80;99.90
38910;DHT22;24676;51.360;12.354;2023-11-22T12:42:54;2.60;99.90
38910;DHT22;24676;51.360;12.354;2023-11-22T12:45:38;2.50;99.90
38910;DHT22;24676;51.360;12.354;2023-11-22T12:48:23;2.50;99.90
38910;DHT22;24676;51.360;12.354;2023-11-22T12:51:14;2.50;99.90
38910;DHT22;24676;51.360;12.354;2023-11-22T12:53:59;2.40;99.90
38910;DHT22;24676;51.360;12.354;2023-11-22T12:56:43;2.40;99.90
38910;DHT22;24676;51.360;12.354;2023-11-22T12:59:27;2.00;99.90
38910;DHT22;24676;51.360;12.354;2023-11-22T13:02:11;1.80;99.90
38910;DHT22;24676;51.360;12.354;2023-11-22T13:04:56;1.80;99.90
38910;DHT22;24676;51.360;12.354;2023-11-22T13:07:40;1.70;99.90
38910;DHT22;24676;51.360;12.354;2023-11-22T13:10:27;1.80;99.90
38910;DHT22;24676;51.360;12.354;2023-11-22T13:13:13;1.80;99.90
38910;DHT22;24676;51.360;12.354;2023-11-22T13:15:58;1.90;99.90
38910;DHT22;24676;51.360;12.354;2023-11-22T13:18:42;1.90;99.90
38910;DHT22;24676;51.360;12.354;2023-11-22T13:21:26;1.80;99.90
38910;DHT22;24676;51.360;12.354;2023-11-22T13:24:11;1.70;99.90
38910;DHT22;24676;51.360;12.354;2023-11-22T13:26:57;1.70;99.90
38910;DHT22;24676;51.360;12.354;2023-11-22T13:29:41;1.80;99.90
38910;DHT22;24676;51.360;12.354;2023-11-22T13:32:27;1.80;99.90
38910;DHT22;24676;51.360;12.354;2023-11-22T13:35:12;1.80;99.90
38910;DHT22;24676;51.360;12.354;2023-11-22T13:37:59;1.90;99.90
38910;DHT22;24676;51.360;12.354;2023-11-22T13:40:44;1.90;99.90
38910;DHT22;24676;51.360;12.354;2023-11-22T13:43:29;2.00;99.90
38910;DHT22;24676;51.360;12.354;2023-11-22T13:46:15;2.00;99.90
38910;DHT22;24676;51.360;12.354;2023-11-22T13:48:59;2.00;99.90
38910;DHT22;24676;51.360;12.354;2023-11-22T13:51:43;2.00;99.90
38910;DHT22;24676;51.360;12.354;2023-11-22T13:54:27;1.90;99.90
38910;DHT22;24676;51.360;12.354;2023-11-22T13:57:11;1.90;99.90
38910;DHT22;24676;51.360;12.354;2023-11-22T13:59:58;1.90;99.90
38910;DHT22;24676;51.360;12.354;2023-11-22T14:02:42;1.90;99.90
38910;DHT22;24676;51.360;12.354;2023-11-22T14:05:26;1.80;99.90
38910;DHT22;24676;51.360;12.354;2023-11-22T14:08:11;1.80;99.90
38910;DHT22;24676;51.360;12.354;2023-11-22T14:10:55;1.70;99.90
38910;DHT22;24676;51.360;12.354;2023-11-22T14:13:39;1.80;99.90
38910;DHT22;24676;51.360;12.354;2023-11-22T14:16:24;1.70;99.90
38910;DHT22;24676;51.360;12.354;2023-11-22T14:19:10;1.70;99.90
38910;DHT22;24676;51.360;12.354;2023-11-22T14:21:54;1.50;99.90
38910;DHT22;24676;51.360;12.354;2023-11-22T14:24:38;1.40;99.90
38910;DHT22;24676;51.360;12.354;2023-11-22T14:27:23;1.30;99.90
38910;DHT22;24676;51.360;12.354;2023-11-22T14:30:07;1.30;99.90
38910;DHT22;24676;51.360;12.354;2023-11-22T14:32:52;1.20;99.90
38910;DHT22;24676;51.360;12.354;2023-11-22T14:35:36;1.20;99.90
38910;DHT22;24676;51.360;12.354;2023-11-22T14:38:21;1.20;99.90
38910;DHT22;24676;51.360;12.354;2023-11-22T14:41:06;1.10;99.90
38910;DHT22;24676;51.360;12.354;2023-11-22T14:43:51;1.10;99.90
38910;DHT22;24676;51.360;12.354;2023-11-22T14:46:35;1.10;99.90
38910;DHT22;24676;51.360;12.354;2023-11-22T14:49:20;1.10;99.90
38910;DHT22;24676;51.360;12.354;2023-11-22T14:52:06;1.10;99.90
38910;DHT22;24676;51.360;12.354;2023-11-22T14:54:50;1.10;99.90
38910;DHT22;24676;51.360;12.354;2023-11-22T14:57:36;1.10;99.90
38910;DHT22;24676;51.360;12.354;2023-11-22T15:00:21;1.20;99.90
38910;DHT22;24676;51.360;12.354;2023-11-22T15:03:05;1.10;99.90
38910;DHT22;24676;51.360;12.354;2023-11-22T15:05:51;1.10;99.90
38910;DHT22;24676;51.360;12.354;2023-11-22T15:08:35;1.10;99.90
38910;DHT22;24676;51.360;12.354;2023-11-22T15:11:20;1.00;99.90
38910;DHT22;24676;51.360;12.354;2023-11-22T15:14:04;1.00;99.90
38910;DHT22;24676;51.360;12.354;2023-11-22T15:16:49;1.00;99.90
38910;DHT22;24676;51.360;12.354;2023-11-22T15:19:33;0.90;99.90
38910;DHT22;24676;51.360;12.354;2023-11-22T15:22:17;0.90;99.90
38910;DHT22;24676;51.360;12.354;2023-11-22T15:25:01;0.90;99.90
38910;DHT22;24676;51.360;12.354;2023-11-22T15:27:46;0.90;99.90
38910;DHT22;24676;51.360;12.354;2023-11-22T15:30:30;0.90;99.90
38910;DHT22;24676;51.360;12.354;2023-11-22T15:33:14;0.80;99.90
38910;DHT22;24676;51.360;12.354;2023-11-22T15:35:59;0.80;99.90
38910;DHT22;24676;51.360;12.354;2023-11-22T15:38:43;0.70;99.90
38910;DHT22;24676;51.360;12.354;2023-11-22T15:41:27;0.70;99.90
38910;DHT22;24676;51.360;12.354;2023-11-22T15:44:11;0.70;99.90
38910;DHT22;24676;51.360;12.354;2023-11-22T15:46:57;0.70;99.90
38910;DHT22;24676;51.360;12.354;2023-11-22T15:49:41;0.80;99.90
38910;DHT22;24676;51.360;12.354;2023-11-22T15:52:25;0.70;99.90
38910;DHT22;24676;51.360;12.354;2023-11-22T15:55:11;0.80;99.90
38910;DHT22;24676;51.360;12.354;2023-11-22T15:57:56;0.70;99.90
38910;DHT22;24676;51.360;12.354;2023-11-22T16:00:40;0.70;99.90
38910;DHT22;24676;51.360;12.354;2023-11-22T16:03:24;0.70;99.90
38910;DHT22;24676;51.360;12.354;2023-11-22T16:06:08;0.70;99.90
38910;DHT22;24676;51.360;12.354;2023-11-22T16:08:53;0.70;99.90
38910;DHT22;24676;51.360;12.354;2023-11-22T16:11:37;0.70;99.90
38910;DHT22;24676;51.360;12.354;2023-11-22T16:14:21;0.70;99.90
38910;DHT22;24676;51.360;12.354;2023-11-22T16:17:05;0.70;99.90
38910;DHT22;24676;51.360;12.354;2023-11-22T16:19:49;0.70;99.90
38910;DHT22;24676;51.360;12.354;2023-11-22T16:22:33;0.70;99.90
38910;DHT22;24676;51.360;12.354;2023-11-22T16:25:19;0.70;99.90
38910;DHT22;24676;51.360;12.354;2023-11-22T16:28:07;0.70;99.90
38910;DHT22;24676;51.360;12.354;2023-11-22T16:30:51;0.70;99.90
38910;DHT22;24676;51.360;12.354;2023-11-22T16:33:35;0.70;99.90
38910;DHT22;24676;51.360;12.354;2023-11-22T16:36:19;0.70;99.90
38910;DHT22;24676;51.360;12.354;2023-11-22T16:39:05;0.70;99.90
38910;DHT22;24676;51.360;12.354;2023-11-22T16:41:51;0.60;99.90
38910;DHT22;24676;51.360;12.354;2023-11-22T16:44:35;0.60;99.90
38910;DHT22;24676;51.360;12.354;2023-11-22T16:47:25;0.60;99.90
38910;DHT22;24676;51.360;12.354;2023-11-22T16:50:09;0.60;99.90
38910;DHT22;24676;51.360;12.354;2023-11-22T16:52:55;0.60;99.90
38910;DHT22;24676;51.360;12.354;2023-11-22T16:55:39;0.50;99.90
38910;DHT22;24676;51.360;12.354;2023-11-22T16:58:24;0.50;99.90
38910;DHT22;24676;51.360;12.354;2023-11-22T17:01:09;0.50;99.90
38910;DHT22;24676;51.360;12.354;2023-11-22T17:03:53;0.50;99.90
38910;DHT22;24676;51.360;12.354;2023-11-22T17:06:37;0.50;99.90
38910;DHT22;24676;51.360;12.354;2023-11-22T17:09:21;0.40;99.90
38910;DHT22;24676;51.360;12.354;2023-11-22T17:12:06;0.40;99.90
38910;DHT22;24676;51.360;12.354;2023-11-22T17:14:50;0.40;99.90
38910;DHT22;24676;51.360;12.354;2023-11-22T17:17:35;0.30;99.90
38910;DHT22;24676;51.360;12.354;2023-11-22T17:20:19;0.30;99.90